Elgin, Arizona
Current Conditions -  °F | °C
As of 4:56 PM on Saturday 22 Nov 2014 (Local Time) from KALK Reporting Station
Clear Clear  
Wind Chill: 59°   Ceiling: Unl
Heat Index: 59°   Visibility: 10mi
Dew Point: 21°   Wind: 12mph
Humidity: 23%   Direction: 280°W
Pressure: 30.06"   Gusts: NA
Location:  31.66°N, 110.53°W
Report Text: KALK 222356Z AUTO 28010KT 10SM CLR 15/M06 A3006 RMK AO2 SLP127 T01501061 10178 20144 56006 TSNO
Loading
Personal Weather Stations






























Interactive Weather Map New forecast layout! Learn more

10-Day Weather Forecast

Advertisements
Track Severe Weather on mobile